createdAt,value
2023-05-12T00:10:22.346Z,96.90
2023-05-12T00:12:53.005Z,96.80
2023-05-12T00:18:18.542Z,97.00
2023-05-12T00:20:53.476Z,96.70
2023-05-12T00:23:24.147Z,96.70
2023-05-12T00:25:57.131Z,96.70
2023-05-12T01:15:02.902Z,96.60
2023-05-12T02:55:45.466Z,98.10
2023-05-12T03:55:15.155Z,97.40
2023-05-12T06:42:10.900Z,98.00
2023-05-12T07:04:06.505Z,96.90
2023-05-12T07:06:36.107Z,96.80
2023-05-12T07:09:04.445Z,96.70
2023-05-12T08:36:28.096Z,96.50
2023-05-12T13:10:12.618Z,89.80
2023-05-12T13:12:40.174Z,89.30
2023-05-12T13:15:10.647Z,88.20
2023-05-12T13:23:58.250Z,87.60
2023-05-12T13:26:25.949Z,86.70
2023-05-12T13:28:53.592Z,87.10
2023-05-12T13:31:21.143Z,86.30
2023-05-12T13:33:48.653Z,84.60
2023-05-12T13:36:16.247Z,85.30
2023-05-12T13:38:45.568Z,85.20
2023-05-12T13:41:13.106Z,84.80
2023-05-12T13:43:40.741Z,84.30
2023-05-12T13:46:09.379Z,84.30
2023-05-12T13:48:37.196Z,83.80
2023-05-12T13:51:05.551Z,84.20
2023-05-12T13:53:38.866Z,83.80
2023-05-12T13:56:16.264Z,84.20
2023-05-12T13:58:44.033Z,83.50
2023-05-12T14:01:11.768Z,83.40
2023-05-12T14:03:39.307Z,84.60
2023-05-12T14:06:06.864Z,83.80
2023-05-12T14:08:35.374Z,83.30
2023-05-12T14:11:03.168Z,84.30
2023-05-12T14:13:31.876Z,83.90
2023-05-12T14:15:59.253Z,84.00
2023-05-12T14:18:26.743Z,84.00
2023-05-12T14:20:54.272Z,81.10
2023-05-12T14:23:21.722Z,82.50
2023-05-12T14:25:49.188Z,77.30
2023-05-12T14:28:16.635Z,78.50
2023-05-12T14:30:45.279Z,77.90
2023-05-12T14:33:13.704Z,76.90
2023-05-12T14:35:41.172Z,76.30
2023-05-12T14:38:08.533Z,76.50
2023-05-12T14:40:36.551Z,77.50
2023-05-12T14:43:05.226Z,76.20
2023-05-12T14:45:32.575Z,75.70
2023-05-12T14:48:00.040Z,76.00
2023-05-12T14:50:28.196Z,76.40
2023-05-12T14:52:55.559Z,76.30
2023-05-12T14:55:23.502Z,75.60
2023-05-12T14:57:51.143Z,75.00
2023-05-12T15:00:19.121Z,73.00
2023-05-12T15:02:46.662Z,72.70
2023-05-12T15:05:15.375Z,73.60
2023-05-12T15:07:42.764Z,73.80
2023-05-12T15:10:11.115Z,74.10
2023-05-12T15:12:38.593Z,71.20
2023-05-12T15:15:08.874Z,71.30
2023-05-12T15:46:05.444Z,70.80
2023-05-12T15:48:33.455Z,71.70
2023-05-12T16:03:58.296Z,71.90
2023-05-12T16:06:26.078Z,72.50
2023-05-12T16:08:53.868Z,75.90
2023-05-12T16:11:21.466Z,74.40
2023-05-12T16:13:48.939Z,74.60
2023-05-12T16:16:16.659Z,74.40
2023-05-12T16:18:44.159Z,73.40
2023-05-12T16:21:12.820Z,73.80
2023-05-12T16:23:40.261Z,73.60
2023-05-12T16:26:07.738Z,75.20
2023-05-12T16:28:35.716Z,74.90
2023-05-12T16:31:03.665Z,74.70
2023-05-12T16:33:31.254Z,73.20
2023-05-12T16:35:58.794Z,72.60
2023-05-12T16:38:26.662Z,73.20
2023-05-12T16:40:54.190Z,73.10
2023-05-12T16:43:22.053Z,72.70
2023-05-12T16:45:59.995Z,73.30
2023-05-12T16:48:33.357Z,74.40
2023-05-12T16:51:09.100Z,74.50
2023-05-12T16:53:37.382Z,74.90
2023-05-12T16:56:05.161Z,75.00
2023-05-12T16:58:33.003Z,73.70
2023-05-12T17:01:01.044Z,74.40
2023-05-12T17:03:29.442Z,74.90
2023-05-12T19:28:19.486Z,84.50
2023-05-12T19:49:03.674Z,86.80
2023-05-12T19:51:33.116Z,87.60
2023-05-12T20:00:22.585Z,85.00
2023-05-12T22:10:33.870Z,88.10
2023-05-12T22:26:08.046Z,89.50
2023-05-12T22:32:50.714Z,89.00
2023-05-12T23:07:41.714Z,90.30
2023-05-12T23:10:20.700Z,89.80
2023-05-12T23:12:52.801Z,90.00
2023-05-12T23:21:47.192Z,90.50
2023-05-12T23:24:18.794Z,90.60
